sensor_id;sensor_type;location;lat;lon;timestamp;temperature;humidity
77839;SHT31;67034;43.226;27.932;2023-04-01T00:01:12;9.18;77.65
77839;SHT31;67034;43.226;27.932;2023-04-01T00:03:39;9.06;76.84
77839;SHT31;67034;43.226;27.932;2023-04-01T00:06:06;8.99;78.12
77839;SHT31;67034;43.226;27.932;2023-04-01T00:08:32;8.78;79.72
77839;SHT31;67034;43.226;27.932;2023-04-01T00:10:58;8.89;78.94
77839;SHT31;67034;43.226;27.932;2023-04-01T00:13:24;8.54;79.96
77839;SHT31;67034;43.226;27.932;2023-04-01T00:15:51;8.65;79.77
77839;SHT31;67034;43.226;27.932;2023-04-01T00:18:17;8.57;79.69
77839;SHT31;67034;43.226;27.932;2023-04-01T00:20:44;8.71;78.94
77839;SHT31;67034;43.226;27.932;2023-04-01T00:23:14;8.69;78.56
77839;SHT31;67034;43.226;27.932;2023-04-01T00:25:40;8.44;79.66
77839;SHT31;67034;43.226;27.932;2023-04-01T00:28:06;8.36;80.68
77839;SHT31;67034;43.226;27.932;2023-04-01T00:30:32;8.38;80.74
77839;SHT31;67034;43.226;27.932;2023-04-01T00:32:57;8.41;80.84
77839;SHT31;67034;43.226;27.932;2023-04-01T00:35:23;8.34;81.11
77839;SHT31;67034;43.226;27.932;2023-04-01T00:37:49;8.45;80.18
77839;SHT31;67034;43.226;27.932;2023-04-01T00:40:25;8.47;80.05
77839;SHT31;67034;43.226;27.932;2023-04-01T00:42:51;8.64;79.95
77839;SHT31;67034;43.226;27.932;2023-04-01T00:45:30;8.38;79.73
77839;SHT31;67034;43.226;27.932;2023-04-01T00:47:59;7.95;81.60
77839;SHT31;67034;43.226;27.932;2023-04-01T00:50:26;7.82;82.15
77839;SHT31;67034;43.226;27.932;2023-04-01T00:52:53;8.16;81.75
77839;SHT31;67034;43.226;27.932;2023-04-01T00:55:22;8.23;81.57
77839;SHT31;67034;43.226;27.932;2023-04-01T00:57:49;8.43;80.49
77839;SHT31;67034;43.226;27.932;2023-04-01T01:00:17;8.47;80.31
77839;SHT31;67034;43.226;27.932;2023-04-01T01:02:45;8.68;79.62
77839;SHT31;67034;43.226;27.932;2023-04-01T01:05:12;8.88;78.04
77839;SHT31;67034;43.226;27.932;2023-04-01T01:07:42;8.71;78.65
77839;SHT31;67034;43.226;27.932;2023-04-01T01:10:17;8.81;78.81
77839;SHT31;67034;43.226;27.932;2023-04-01T01:12:47;8.33;79.95
77839;SHT31;67034;43.226;27.932;2023-04-01T01:15:20;8.89;79.37
77839;SHT31;67034;43.226;27.932;2023-04-01T01:17:56;9.23;78.32
77839;SHT31;67034;43.226;27.932;2023-04-01T01:20:53;9.87;75.28
77839;SHT31;67034;43.226;27.932;2023-04-01T01:27:00;10.22;72.39
77839;SHT31;67034;43.226;27.932;2023-04-01T01:32:54;8.06;79.53
77839;SHT31;67034;43.226;27.932;2023-04-01T01:35:24;7.86;80.30
77839;SHT31;67034;43.226;27.932;2023-04-01T01:37:53;8.09;80.73
77839;SHT31;67034;43.226;27.932;2023-04-01T01:40:20;8.54;79.52
77839;SHT31;67034;43.226;27.932;2023-04-01T01:42:50;8.69;77.80
77839;SHT31;67034;43.226;27.932;2023-04-01T01:45:20;8.48;79.35
77839;SHT31;67034;43.226;27.932;2023-04-01T01:47:48;8.41;79.59
77839;SHT31;67034;43.226;27.932;2023-04-01T01:50:15;7.95;81.17
77839;SHT31;67034;43.226;27.932;2023-04-01T01:52:43;7.69;82.27
77839;SHT31;67034;43.226;27.932;2023-04-01T01:55:24;7.72;82.53
77839;SHT31;67034;43.226;27.932;2023-04-01T01:57:52;7.93;81.98
77839;SHT31;67034;43.226;27.932;2023-04-01T02:00:18;8.10;81.67
77839;SHT31;67034;43.226;27.932;2023-04-01T02:02:46;8.63;79.80
77839;SHT31;67034;43.226;27.932;2023-04-01T02:05:16;8.76;78.40
77839;SHT31;67034;43.226;27.932;2023-04-01T02:07:48;8.45;79.55
77839;SHT31;67034;43.226;27.932;2023-04-01T02:10:15;8.33;80.68
77839;SHT31;67034;43.226;27.932;2023-04-01T02:12:44;8.02;81.80
77839;SHT31;67034;43.226;27.932;2023-04-01T02:15:13;8.02;82.09
77839;SHT31;67034;43.226;27.932;2023-04-01T02:17:43;8.09;81.69
77839;SHT31;67034;43.226;27.932;2023-04-01T02:20:13;8.07;81.54
77839;SHT31;67034;43.226;27.932;2023-04-01T02:22:43;8.26;81.07
77839;SHT31;67034;43.226;27.932;2023-04-01T02:25:13;8.03;81.36
77839;SHT31;67034;43.226;27.932;2023-04-01T02:27:39;7.97;81.58
77839;SHT31;67034;43.226;27.932;2023-04-01T02:30:07;8.00;82.58
77839;SHT31;67034;43.226;27.932;2023-04-01T02:32:34;8.50;81.97
77839;SHT31;67034;43.226;27.932;2023-04-01T02:35:01;9.40;78.85
77839;SHT31;67034;43.226;27.932;2023-04-01T02:37:31;9.99;75.44
77839;SHT31;67034;43.226;27.932;2023-04-01T02:39:59;9.30;76.93
77839;SHT31;67034;43.226;27.932;2023-04-01T02:42:27;9.47;76.79
77839;SHT31;67034;43.226;27.932;2023-04-01T02:44:52;9.61;75.82
77839;SHT31;67034;43.226;27.932;2023-04-01T02:47:18;10.05;73.83
77839;SHT31;67034;43.226;27.932;2023-04-01T02:49:44;10.63;71.77
77839;SHT31;67034;43.226;27.932;2023-04-01T02:52:10;10.60;70.88
77839;SHT31;67034;43.226;27.932;2023-04-01T02:54:35;10.63;69.60
77839;SHT31;67034;43.226;27.932;2023-04-01T02:57:01;8.88;76.48
77839;SHT31;67034;43.226;27.932;2023-04-01T02:59:28;8.58;79.15
77839;SHT31;67034;43.226;27.932;2023-04-01T03:01:54;8.79;78.87
77839;SHT31;67034;43.226;27.932;2023-04-01T03:04:20;8.63;79.88
77839;SHT31;67034;43.226;27.932;2023-04-01T03:06:46;8.89;79.30
77839;SHT31;67034;43.226;27.932;2023-04-01T03:09:11;9.01;78.57
77839;SHT31;67034;43.226;27.932;2023-04-01T03:11:37;9.15;78.32
77839;SHT31;67034;43.226;27.932;2023-04-01T03:14:03;9.26;78.12
77839;SHT31;67034;43.226;27.932;2023-04-01T03:16:30;9.16;78.32
77839;SHT31;67034;43.226;27.932;2023-04-01T03:18:55;8.81;79.38
77839;SHT31;67034;43.226;27.932;2023-04-01T03:21:24;8.48;80.36
77839;SHT31;67034;43.226;27.932;2023-04-01T03:23:50;8.65;80.73
77839;SHT31;67034;43.226;27.932;2023-04-01T03:26:16;8.65;80.77
77839;SHT31;67034;43.226;27.932;2023-04-01T03:28:42;8.89;79.95
77839;SHT31;67034;43.226;27.932;2023-04-01T03:31:08;8.96;79.39
77839;SHT31;67034;43.226;27.932;2023-04-01T03:33:36;8.92;79.46
77839;SHT31;67034;43.226;27.932;2023-04-01T03:36:03;8.82;79.60
77839;SHT31;67034;43.226;27.932;2023-04-01T03:38:31;8.76;79.89
77839;SHT31;67034;43.226;27.932;2023-04-01T03:40:57;8.47;80.88
77839;SHT31;67034;43.226;27.932;2023-04-01T03:43:23;8.47;81.23
77839;SHT31;67034;43.226;27.932;2023-04-01T03:45:50;8.60;81.01
77839;SHT31;67034;43.226;27.932;2023-04-01T03:48:16;8.74;80.28
77839;SHT31;67034;43.226;27.932;2023-04-01T03:50:44;8.76;80.27
77839;SHT31;67034;43.226;27.932;2023-04-01T03:53:10;8.99;79.21
77839;SHT31;67034;43.226;27.932;2023-04-01T03:55:37;9.54;77.26
77839;SHT31;67034;43.226;27.932;2023-04-01T03:58:03;9.46;76.39
77839;SHT31;67034;43.226;27.932;2023-04-01T04:00:29;9.40;76.36
77839;SHT31;67034;43.226;27.932;2023-04-01T04:02:55;9.24;76.73
77839;SHT31;67034;43.226;27.932;2023-04-01T04:05:21;8.43;80.40
77839;SHT31;67034;43.226;27.932;2023-04-01T04:07:49;8.19;81.04
77839;SHT31;67034;43.226;27.932;2023-04-01T04:10:14;8.07;81.53
77839;SHT31;67034;43.226;27.932;2023-04-01T04:12:40;8.29;81.40
77839;SHT31;67034;43.226;27.932;2023-04-01T04:15:06;8.45;81.06
77839;SHT31;67034;43.226;27.932;2023-04-01T04:17:32;8.74;79.97
77839;SHT31;67034;43.226;27.932;2023-04-01T04:19:58;8.75;79.63
77839;SHT31;67034;43.226;27.932;2023-04-01T04:22:24;8.72;79.80
77839;SHT31;67034;43.226;27.932;2023-04-01T04:24:51;8.65;80.58
77839;SHT31;67034;43.226;27.932;2023-04-01T04:27:17;8.33;82.05
77839;SHT31;67034;43.226;27.932;2023-04-01T04:29:43;8.38;82.29
77839;SHT31;67034;43.226;27.932;2023-04-01T04:32:08;8.65;81.11
77839;SHT31;67034;43.226;27.932;2023-04-01T04:34:34;8.55;81.23
77839;SHT31;67034;43.226;27.932;2023-04-01T04:37:00;8.98;80.96
77839;SHT31;67034;43.226;27.932;2023-04-01T04:39:26;9.60;78.99
77839;SHT31;67034;43.226;27.932;2023-04-01T04:41:53;10.03;76.94
77839;SHT31;67034;43.226;27.932;2023-04-01T04:44:18;10.26;76.32
77839;SHT31;67034;43.226;27.932;2023-04-01T04:46:44;9.97;77.31
77839;SHT31;67034;43.226;27.932;2023-04-01T04:49:10;9.91;77.74
77839;SHT31;67034;43.226;27.932;2023-04-01T04:51:36;9.85;78.32
77839;SHT31;67034;43.226;27.932;2023-04-01T04:54:03;10.06;78.07
77839;SHT31;67034;43.226;27.932;2023-04-01T04:56:29;10.18;78.20
77839;SHT31;67034;43.226;27.932;2023-04-01T04:58:57;10.29;78.95
77839;SHT31;67034;43.226;27.932;2023-04-01T05:01:23;11.07;75.07
77839;SHT31;67034;43.226;27.932;2023-04-01T05:03:49;11.76;73.07
77839;SHT31;67034;43.226;27.932;2023-04-01T05:06:16;12.20;73.02
77839;SHT31;67034;43.226;27.932;2023-04-01T05:08:42;12.48;72.95
77839;SHT31;67034;43.226;27.932;2023-04-01T05:11:10;12.79;72.07
77839;SHT31;67034;43.226;27.932;2023-04-01T05:13:37;11.77;74.45
77839;SHT31;67034;43.226;27.932;2023-04-01T05:16:08;11.19;75.03
77839;SHT31;67034;43.226;27.932;2023-04-01T05:18:34;11.38;76.33
77839;SHT31;67034;43.226;27.932;2023-04-01T05:20:59;11.38;74.78
77839;SHT31;67034;43.226;27.932;2023-04-01T05:23:25;11.77;75.30
77839;SHT31;67034;43.226;27.932;2023-04-01T05:25:51;12.44;70.91
77839;SHT31;67034;43.226;27.932;2023-04-01T05:28:18;12.96;70.31
77839;SHT31;67034;43.226;27.932;2023-04-01T05:30:45;13.40;67.55
77839;SHT31;67034;43.226;27.932;2023-04-01T05:33:13;13.83;66.13
77839;SHT31;67034;43.226;27.932;2023-04-01T05:35:39;14.13;67.74
77839;SHT31;67034;43.226;27.932;2023-04-01T05:38:05;12.40;69.94
77839;SHT31;67034;43.226;27.932;2023-04-01T05:40:31;12.86;71.89
77839;SHT31;67034;43.226;27.932;2023-04-01T05:42:58;13.03;70.84
77839;SHT31;67034;43.226;27.932;2023-04-01T05:45:24;12.68;71.37
77839;SHT31;67034;43.226;27.932;2023-04-01T05:47:49;13.26;69.81
77839;SHT31;67034;43.226;27.932;2023-04-01T05:50:17;13.88;63.55
77839;SHT31;67034;43.226;27.932;2023-04-01T05:52:43;14.05;63.55
77839;SHT31;67034;43.226;27.932;2023-04-01T05:55:09;14.28;64.25
77839;SHT31;67034;43.226;27.932;2023-04-01T05:57:35;14.64;62.19
77839;SHT31;67034;43.226;27.932;2023-04-01T06:00:01;14.13;63.28
77839;SHT31;67034;43.226;27.932;2023-04-01T06:02:27;14.28;62.77
77839;SHT31;67034;43.226;27.932;2023-04-01T06:05:03;14.28;62.13
77839;SHT31;67034;43.226;27.932;2023-04-01T06:07:35;14.02;65.77
77839;SHT31;67034;43.226;27.932;2023-04-01T06:10:01;14.36;63.38
77839;SHT31;67034;43.226;27.932;2023-04-01T06:12:38;14.85;61.76
77839;SHT31;67034;43.226;27.932;2023-04-01T06:15:15;15.21;59.82
77839;SHT31;67034;43.226;27.932;2023-04-01T06:17:52;15.49;59.55
77839;SHT31;67034;43.226;27.932;2023-04-01T06:20:30;15.56;58.57
77839;SHT31;67034;43.226;27.932;2023-04-01T06:23:22;15.36;58.91
77839;SHT31;67034;43.226;27.932;2023-04-01T06:26:00;15.11;60.13
77839;SHT31;67034;43.226;27.932;2023-04-01T06:28:43;15.11;60.29
77839;SHT31;67034;43.226;27.932;2023-04-01T06:31:21;15.31;59.61
77839;SHT31;67034;43.226;27.932;2023-04-01T06:34:08;15.38;59.29
77839;SHT31;67034;43.226;27.932;2023-04-01T06:36:55;15.29;59.96
77839;SHT31;67034;43.226;27.932;2023-04-01T06:39:46;15.45;59.06
77839;SHT31;67034;43.226;27.932;2023-04-01T06:42:22;15.45;59.06
77839;SHT31;67034;43.226;27.932;2023-04-01T06:44:57;15.36;59.90
77839;SHT31;67034;43.226;27.932;2023-04-01T06:47:35;15.46;58.55
77839;SHT31;67034;43.226;27.932;2023-04-01T06:50:07;15.18;58.94
77839;SHT31;67034;43.226;27.932;2023-04-01T06:52:42;14.97;59.57
77839;SHT31;67034;43.226;27.932;2023-04-01T06:55:21;14.77;60.44
77839;SHT31;67034;43.226;27.932;2023-04-01T06:57:52;14.67;60.82
77839;SHT31;67034;43.226;27.932;2023-04-01T07:00:26;14.44;62.22
77839;SHT31;67034;43.226;27.932;2023-04-01T07:02:53;14.32;63.04
77839;SHT31;67034;43.226;27.932;2023-04-01T07:05:22;14.36;63.21
77839;SHT31;67034;43.226;27.932;2023-04-01T07:07:50;14.20;64.16
77839;SHT31;67034;43.226;27.932;2023-04-01T07:10:28;13.94;64.69
77839;SHT31;67034;43.226;27.932;2023-04-01T07:12:58;13.86;65.37
77839;SHT31;67034;43.226;27.932;2023-04-01T07:15:30;13.72;65.88
77839;SHT31;67034;43.226;27.932;2023-04-01T07:17:58;13.81;66.38
77839;SHT31;67034;43.226;27.932;2023-04-01T07:20:29;13.81;66.76
77839;SHT31;67034;43.226;27.932;2023-04-01T07:22:58;13.97;66.67
77839;SHT31;67034;43.226;27.932;2023-04-01T07:25:30;14.10;65.34
77839;SHT31;67034;43.226;27.932;2023-04-01T07:28:02;14.09;65.41
77839;SHT31;67034;43.226;27.932;2023-04-01T07:30:38;14.18;65.43
77839;SHT31;67034;43.226;27.932;2023-04-01T07:33:12;14.28;64.49
77839;SHT31;67034;43.226;27.932;2023-04-01T07:35:44;14.22;64.52
77839;SHT31;67034;43.226;27.932;2023-04-01T07:38:20;14.26;65.20
77839;SHT31;67034;43.226;27.932;2023-04-01T07:40:54;14.26;65.11
77839;SHT31;67034;43.226;27.932;2023-04-01T07:43:50;14.39;64.69
77839;SHT31;67034;43.226;27.932;2023-04-01T07:46:28;14.33;64.39
77839;SHT31;67034;43.226;27.932;2023-04-01T07:48:57;14.33;64.19
77839;SHT31;67034;43.226;27.932;2023-04-01T07:51:28;14.20;65.22
77839;SHT31;67034;43.226;27.932;2023-04-01T07:54:04;14.28;65.83
77839;SHT31;67034;43.226;27.932;2023-04-01T07:56:39;14.46;64.69
77839;SHT31;67034;43.226;27.932;2023-04-01T07:59:11;14.49;64.28
77839;SHT31;67034;43.226;27.932;2023-04-01T08:01:48;14.53;64.46
77839;SHT31;67034;43.226;27.932;2023-04-01T08:04:25;14.64;65.09
77839;SHT31;67034;43.226;27.932;2023-04-01T08:06:59;14.80;64.42
77839;SHT31;67034;43.226;27.932;2023-04-01T08:09:35;14.94;64.31
77839;SHT31;67034;43.226;27.932;2023-04-01T08:12:15;15.38;63.11
77839;SHT31;67034;43.226;27.932;2023-04-01T08:14:52;15.59;62.02
77839;SHT31;67034;43.226;27.932;2023-04-01T08:17:24;15.45;62.70
77839;SHT31;67034;43.226;27.932;2023-04-01T08:20:04;15.47;63.52
77839;SHT31;67034;43.226;27.932;2023-04-01T08:22:38;15.50;62.00
77839;SHT31;67034;43.226;27.932;2023-04-01T08:25:06;15.38;62.30
77839;SHT31;67034;43.226;27.932;2023-04-01T08:27:39;15.42;63.07
77839;SHT31;67034;43.226;27.932;2023-04-01T08:30:17;15.55;62.48
77839;SHT31;67034;43.226;27.932;2023-04-01T08:32:46;15.70;61.78
77839;SHT31;67034;43.226;27.932;2023-04-01T08:35:17;15.65;61.36
77839;SHT31;67034;43.226;27.932;2023-04-01T08:37:45;15.47;62.60
77839;SHT31;67034;43.226;27.932;2023-04-01T08:40:28;15.57;62.65
77839;SHT31;67034;43.226;27.932;2023-04-01T08:43:08;15.60;62.06
77839;SHT31;67034;43.226;27.932;2023-04-01T08:45:56;15.56;62.83
77839;SHT31;67034;43.226;27.932;2023-04-01T08:48:45;15.69;62.99
77839;SHT31;67034;43.226;27.932;2023-04-01T08:51:40;15.83;62.75
77839;SHT31;67034;43.226;27.932;2023-04-01T08:54:35;15.79;62.19
77839;SHT31;67034;43.226;27.932;2023-04-01T08:57:07;15.73;62.60
77839;SHT31;67034;43.226;27.932;2023-04-01T08:59:48;15.80;62.16
77839;SHT31;67034;43.226;27.932;2023-04-01T09:05:30;15.69;63.75
77839;SHT31;67034;43.226;27.932;2023-04-01T09:08:04;15.86;62.85
77839;SHT31;67034;43.226;27.932;2023-04-01T09:16:29;16.15;62.45
77839;SHT31;67034;43.226;27.932;2023-04-01T09:19:29;16.28;62.28
77839;SHT31;67034;43.226;27.932;2023-04-01T09:22:10;16.44;61.45
77839;SHT31;67034;43.226;27.932;2023-04-01T09:27:44;16.52;60.16
77839;SHT31;67034;43.226;27.932;2023-04-01T09:30:27;16.52;60.86
77839;SHT31;67034;43.226;27.932;2023-04-01T09:33:24;16.53;60.97
77839;SHT31;67034;43.226;27.932;2023-04-01T09:36:04;16.47;61.42
77839;SHT31;67034;43.226;27.932;2023-04-01T09:38:40;16.35;62.71
77839;SHT31;67034;43.226;27.932;2023-04-01T09:41:15;16.22;62.80
77839;SHT31;67034;43.226;27.932;2023-04-01T09:43:59;15.86;63.80
77839;SHT31;67034;43.226;27.932;2023-04-01T09:49:40;15.90;63.96
77839;SHT31;67034;43.226;27.932;2023-04-01T09:52:18;15.93;63.95
77839;SHT31;67034;43.226;27.932;2023-04-01T09:54:58;15.84;64.19
77839;SHT31;67034;43.226;27.932;2023-04-01T09:57:44;15.76;64.71
77839;SHT31;67034;43.226;27.932;2023-04-01T10:00:48;15.62;65.25
77839;SHT31;67034;43.226;27.932;2023-04-01T10:07:01;15.86;64.68
77839;SHT31;67034;43.226;27.932;2023-04-01T10:12:47;15.70;66.72
77839;SHT31;67034;43.226;27.932;2023-04-01T10:15:30;15.91;64.32
77839;SHT31;67034;43.226;27.932;2023-04-01T10:21:11;15.90;64.35
77839;SHT31;67034;43.226;27.932;2023-04-01T10:24:11;15.89;64.90
77839;SHT31;67034;43.226;27.932;2023-04-01T10:29:59;16.13;64.72
77839;SHT31;67034;43.226;27.932;2023-04-01T10:36:13;16.42;64.08
77839;SHT31;67034;43.226;27.932;2023-04-01T10:39:14;16.66;63.21
77839;SHT31;67034;43.226;27.932;2023-04-01T10:48:12;16.68;62.93
77839;SHT31;67034;43.226;27.932;2023-04-01T10:53:42;16.55;63.55
77839;SHT31;67034;43.226;27.932;2023-04-01T10:56:35;16.56;63.53
77839;SHT31;67034;43.226;27.932;2023-04-01T11:02:20;16.97;62.49
77839;SHT31;67034;43.226;27.932;2023-04-01T11:05:19;16.96;62.74
77839;SHT31;67034;43.226;27.932;2023-04-01T11:23:25;16.75;63.94
77839;SHT31;67034;43.226;27.932;2023-04-01T11:26:00;16.77;63.96
77839;SHT31;67034;43.226;27.932;2023-04-01T11:31:43;16.87;62.27
77839;SHT31;67034;43.226;27.932;2023-04-01T11:34:35;16.94;61.96
77839;SHT31;67034;43.226;27.932;2023-04-01T11:37:10;17.00;62.41
77839;SHT31;67034;43.226;27.932;2023-04-01T11:39:44;17.32;60.26
77839;SHT31;67034;43.226;27.932;2023-04-01T11:42:19;17.54;60.00
77839;SHT31;67034;43.226;27.932;2023-04-01T11:44:57;17.69;60.07
77839;SHT31;67034;43.226;27.932;2023-04-01T11:50:35;17.77;59.79
77839;SHT31;67034;43.226;27.932;2023-04-01T11:53:30;17.79;59.81
77839;SHT31;67034;43.226;27.932;2023-04-01T11:56:07;17.96;59.73
77839;SHT31;67034;43.226;27.932;2023-04-01T11:58:43;18.14;59.28
77839;SHT31;67034;43.226;27.932;2023-04-01T12:01:27;18.33;58.94
77839;SHT31;67034;43.226;27.932;2023-04-01T12:04:22;18.56;58.24
77839;SHT31;67034;43.226;27.932;2023-04-01T12:06:57;18.72;57.58
77839;SHT31;67034;43.226;27.932;2023-04-01T12:09:31;18.81;57.45
77839;SHT31;67034;43.226;27.932;2023-04-01T12:12:12;18.75;57.43
77839;SHT31;67034;43.226;27.932;2023-04-01T12:14:44;18.67;57.10
77839;SHT31;67034;43.226;27.932;2023-04-01T12:17:24;18.63;56.94
77839;SHT31;67034;43.226;27.932;2023-04-01T12:19:54;18.51;57.36
77839;SHT31;67034;43.226;27.932;2023-04-01T12:22:32;18.40;58.48
77839;SHT31;67034;43.226;27.932;2023-04-01T12:25:14;18.23;59.46
77839;SHT31;67034;43.226;27.932;2023-04-01T12:27:47;18.36;58.42
77839;SHT31;67034;43.226;27.932;2023-04-01T12:30:35;18.34;58.85
77839;SHT31;67034;43.226;27.932;2023-04-01T12:33:28;18.19;59.54
77839;SHT31;67034;43.226;27.932;2023-04-01T12:36:05;18.19;59.47
77839;SHT31;67034;43.226;27.932;2023-04-01T12:38:47;18.17;59.71
77839;SHT31;67034;43.226;27.932;2023-04-01T12:41:19;18.19;59.61
77839;SHT31;67034;43.226;27.932;2023-04-01T12:47:00;17.93;60.46
77839;SHT31;67034;43.226;27.932;2023-04-01T12:52:40;17.11;61.91
77839;SHT31;67034;43.226;27.932;2023-04-01T12:55:25;16.71;64.01
77839;SHT31;67034;43.226;27.932;2023-04-01T13:01:26;16.49;65.04
77839;SHT31;67034;43.226;27.932;2023-04-01T13:04:05;16.42;65.33
77839;SHT31;67034;43.226;27.932;2023-04-01T13:09:40;16.36;65.51
77839;SHT31;67034;43.226;27.932;2023-04-01T13:12:26;16.40;65.96
77839;SHT31;67034;43.226;27.932;2023-04-01T13:15:09;16.42;66.55
77839;SHT31;67034;43.226;27.932;2023-04-01T13:17:42;16.59;65.32
77839;SHT31;67034;43.226;27.932;2023-04-01T13:20:17;16.68;65.18
77839;SHT31;67034;43.226;27.932;2023-04-01T13:22:56;16.55;66.04
77839;SHT31;67034;43.226;27.932;2023-04-01T13:25:26;16.62;65.12
77839;SHT31;67034;43.226;27.932;2023-04-01T13:28:01;16.52;66.22
77839;SHT31;67034;43.226;27.932;2023-04-01T13:30:33;16.61;65.76
77839;SHT31;67034;43.226;27.932;2023-04-01T13:33:04;16.63;66.23
77839;SHT31;67034;43.226;27.932;2023-04-01T13:35:41;16.77;65.04
77839;SHT31;67034;43.226;27.932;2023-04-01T13:38:31;16.84;65.46
77839;SHT31;67034;43.226;27.932;2023-04-01T13:41:06;16.94;65.39
77839;SHT31;67034;43.226;27.932;2023-04-01T13:43:39;17.21;63.95
77839;SHT31;67034;43.226;27.932;2023-04-01T13:46:34;16.99;63.71
77839;SHT31;67034;43.226;27.932;2023-04-01T13:49:19;17.04;64.79
77839;SHT31;67034;43.226;27.932;2023-04-01T13:52:24;17.27;64.16
77839;SHT31;67034;43.226;27.932;2023-04-01T13:58:07;17.71;62.08
77839;SHT31;67034;43.226;27.932;2023-04-01T14:00:48;17.89;61.78
77839;SHT31;67034;43.226;27.932;2023-04-01T14:03:27;17.89;60.72
77839;SHT31;67034;43.226;27.932;2023-04-01T14:06:04;17.79;60.28
77839;SHT31;67034;43.226;27.932;2023-04-01T14:11:26;17.58;60.86
77839;SHT31;67034;43.226;27.932;2023-04-01T14:14:01;17.79;60.81
77839;SHT31;67034;43.226;27.932;2023-04-01T14:16:55;17.82;59.86
77839;SHT31;67034;43.226;27.932;2023-04-01T14:19:36;17.81;60.53
77839;SHT31;67034;43.226;27.932;2023-04-01T14:22:11;17.71;60.10
77839;SHT31;67034;43.226;27.932;2023-04-01T14:24:52;17.69;59.83
77839;SHT31;67034;43.226;27.932;2023-04-01T14:27:40;17.27;60.83
77839;SHT31;67034;43.226;27.932;2023-04-01T14:30:41;16.94;62.06
77839;SHT31;67034;43.226;27.932;2023-04-01T14:33:23;16.79;63.05
77839;SHT31;67034;43.226;27.932;2023-04-01T14:36:12;16.77;62.95
77839;SHT31;67034;43.226;27.932;2023-04-01T14:38:47;16.82;62.86
77839;SHT31;67034;43.226;27.932;2023-04-01T14:41:20;16.80;62.30
77839;SHT31;67034;43.226;27.932;2023-04-01T14:47:20;16.68;62.37
77839;SHT31;67034;43.226;27.932;2023-04-01T14:49:53;16.69;62.84
77839;SHT31;67034;43.226;27.932;2023-04-01T14:52:30;16.17;64.61
77839;SHT31;67034;43.226;27.932;2023-04-01T14:54:58;16.17;64.70
77839;SHT31;67034;43.226;27.932;2023-04-01T14:57:25;16.22;64.65
77839;SHT31;67034;43.226;27.932;2023-04-01T14:59:54;16.03;65.18
77839;SHT31;67034;43.226;27.932;2023-04-01T15:02:33;16.10;64.98
77839;SHT31;67034;43.226;27.932;2023-04-01T15:05:13;16.29;63.58
77839;SHT31;67034;43.226;27.932;2023-04-01T15:08:05;16.01;64.99
77839;SHT31;67034;43.226;27.932;2023-04-01T15:10:53;16.14;64.50
77839;SHT31;67034;43.226;27.932;2023-04-01T15:13:32;16.62;62.81
77839;SHT31;67034;43.226;27.932;2023-04-01T15:16:11;16.99;61.64
77839;SHT31;67034;43.226;27.932;2023-04-01T15:18:45;17.24;60.87
77839;SHT31;67034;43.226;27.932;2023-04-01T15:21:37;17.35;60.65
77839;SHT31;67034;43.226;27.932;2023-04-01T15:24:07;17.23;60.49
77839;SHT31;67034;43.226;27.932;2023-04-01T15:27:00;17.31;60.62
77839;SHT31;67034;43.226;27.932;2023-04-01T15:29:52;17.40;59.94
77839;SHT31;67034;43.226;27.932;2023-04-01T15:32:24;17.60;59.74
77839;SHT31;67034;43.226;27.932;2023-04-01T15:34:59;17.78;58.69
77839;SHT31;67034;43.226;27.932;2023-04-01T15:37:35;17.81;58.75
77839;SHT31;67034;43.226;27.932;2023-04-01T15:40:08;17.37;60.26
77839;SHT31;67034;43.226;27.932;2023-04-01T15:42:49;16.87;61.07
77839;SHT31;67034;43.226;27.932;2023-04-01T15:45:31;16.66;61.89
77839;SHT31;67034;43.226;27.932;2023-04-01T15:48:02;16.17;63.33
77839;SHT31;67034;43.226;27.932;2023-04-01T15:50:55;15.70;64.53
77839;SHT31;67034;43.226;27.932;2023-04-01T15:53:35;15.35;65.87
77839;SHT31;67034;43.226;27.932;2023-04-01T15:56:12;15.28;66.69
77839;SHT31;67034;43.226;27.932;2023-04-01T15:58:55;15.21;66.69
77839;SHT31;67034;43.226;27.932;2023-04-01T16:01:35;15.02;67.33
77839;SHT31;67034;43.226;27.932;2023-04-01T16:04:19;15.07;66.94
77839;SHT31;67034;43.226;27.932;2023-04-01T16:07:03;14.92;68.10
77839;SHT31;67034;43.226;27.932;2023-04-01T16:09:56;14.88;68.19
77839;SHT31;67034;43.226;27.932;2023-04-01T16:12:36;14.95;67.39
77839;SHT31;67034;43.226;27.932;2023-04-01T16:15:13;14.70;68.57
77839;SHT31;67034;43.226;27.932;2023-04-01T16:20:44;14.50;69.27
77839;SHT31;67034;43.226;27.932;2023-04-01T16:23:15;14.37;69.79
77839;SHT31;67034;43.226;27.932;2023-04-01T16:25:51;14.29;70.41
77839;SHT31;67034;43.226;27.932;2023-04-01T16:28:23;14.37;69.88
77839;SHT31;67034;43.226;27.932;2023-04-01T16:30:56;14.32;70.04
77839;SHT31;67034;43.226;27.932;2023-04-01T16:33:31;14.30;70.27
77839;SHT31;67034;43.226;27.932;2023-04-01T16:36:04;14.32;70.49
77839;SHT31;67034;43.226;27.932;2023-04-01T16:38:36;14.33;70.51
77839;SHT31;67034;43.226;27.932;2023-04-01T16:41:14;14.29;70.53
77839;SHT31;67034;43.226;27.932;2023-04-01T16:43:43;14.30;70.49
77839;SHT31;67034;43.226;27.932;2023-04-01T16:46:31;14.19;71.04
77839;SHT31;67034;43.226;27.932;2023-04-01T16:52:04;14.26;71.06
77839;SHT31;67034;43.226;27.932;2023-04-01T16:54:42;14.25;71.24
77839;SHT31;67034;43.226;27.932;2023-04-01T16:57:21;14.23;71.01
77839;SHT31;67034;43.226;27.932;2023-04-01T16:59:54;14.23;71.08
77839;SHT31;67034;43.226;27.932;2023-04-01T17:02:26;14.23;71.40
77839;SHT31;67034;43.226;27.932;2023-04-01T17:04:59;14.18;71.67
77839;SHT31;67034;43.226;27.932;2023-04-01T17:07:37;14.20;71.42
77839;SHT31;67034;43.226;27.932;2023-04-01T17:10:31;14.12;71.89
77839;SHT31;67034;43.226;27.932;2023-04-01T17:13:15;14.09;71.83
77839;SHT31;67034;43.226;27.932;2023-04-01T17:15:45;14.12;72.45
77839;SHT31;67034;43.226;27.932;2023-04-01T17:18:16;14.12;72.19
77839;SHT31;67034;43.226;27.932;2023-04-01T17:20:52;14.04;72.86
77839;SHT31;67034;43.226;27.932;2023-04-01T17:23:24;14.06;72.32
77839;SHT31;67034;43.226;27.932;2023-04-01T17:26:05;14.02;72.30
77839;SHT31;67034;43.226;27.932;2023-04-01T17:28:44;14.12;71.90
77839;SHT31;67034;43.226;27.932;2023-04-01T17:31:21;14.25;71.22
77839;SHT31;67034;43.226;27.932;2023-04-01T17:37:14;14.26;71.60
77839;SHT31;67034;43.226;27.932;2023-04-01T17:39:54;14.29;71.24
77839;SHT31;67034;43.226;27.932;2023-04-01T17:42:31;14.25;71.44
77839;SHT31;67034;43.226;27.932;2023-04-01T17:45:03;14.36;70.81
77839;SHT31;67034;43.226;27.932;2023-04-01T17:47:44;14.41;70.81